• Join FlightAware (Why Join?)
  • Login
  • US Flag 
03:25AM EST


 

Airport Tracker/Info


-or-


 

Live Flight TrackerFlight Track Log ✈ TAM3737 ✈ 09-Sep-2013 ✈ SBSR / SJP - SBSP / CGH

Flight Track Log - Related Links

Times and Time Zones

All times are in EDT time to prevent confusion due to time zone crossing. See the TAM3737 flight status page for this flight to view local times or setup timezone preferences in your user account.

Time Position Orientation Groundspeed Altitude Reporting Facility
EDT Latitude Longitude Course Direction KTS MPH feet Rate Location/Type
04:53AM -20.8090 -49.3960 43° Northeast 152 175 2,000  Level FlightAware
04:53AM -20.8030 -49.3870 55° Northeast 147 169 2,700 2,160 Climbing FlightAware
04:53AM -20.8020 -49.3810 80° East 155 178 2,900 1,260 Climbing FlightAware
04:54AM -20.8130 -49.3640 125° Southeast 193 222 3,400 1,320 Climbing FlightAware
04:54AM -20.8260 -49.3540 144° Southeast 215 247 3,800 1,380 Climbing FlightAware
04:54AM -20.8450 -49.3400 145° Southeast 252 290 4,300 2,040 Climbing FlightAware
04:55AM -20.8550 -49.3300 137° Southeast 266 306 4,900 3,720 Climbing FlightAware
04:55AM -20.8600 -49.3200 118° Southeast 267 307 5,300 3,480 Climbing FlightAware
04:55AM -20.8650 -49.2980 104° East 273 314 6,300 3,480 Climbing FlightAware
04:55AM -20.8680 -49.2710 97° East 273 314 7,700 3,240 Climbing FlightAware
04:56AM -20.8700 -49.2370 94° East 280 322 9,000 2,880 Climbing FlightAware
04:56AM -20.8770 -49.1750 97° East 306 352 10,800 1,980 Climbing FlightAware
04:57AM -20.8850 -49.1240 100° East 349 402 11,400 1,860 Climbing FlightAware
04:58AM -20.8940 -49.0650 99° East 365 420 12,800 2,700 Climbing FlightAware
04:58AM -20.9040 -48.9930 98° East 373 429 14,700 2,640 Climbing FlightAware
04:59AM -20.9200 -48.9360 107° East 377 434 16,100 2,400 Climbing FlightAware
04:59AM -20.9380 -48.9140 131° Southeast 383 441 16,700 2,340 Climbing FlightAware
05:00AM -20.9820 -48.8750 140° Southeast 389 448 18,000 2,280 Climbing FlightAware
05:00AM -21.0390 -48.8260 141° Southeast 400 460 19,500 2,160 Climbing FlightAware
05:01AM -21.0870 -48.7840 141° Southeast 413 475 20,600 2,700 Climbing FlightAware
05:01AM -21.1470 -48.7310 141° Southeast 404 465 22,800 2,820 Climbing FlightAware
05:02AM -21.1960 -48.6870 140° Southeast 394 453 24,400 2,580 Climbing FlightAware
05:03AM -21.2470 -48.6430 141° Southeast 389 448 25,900 2,160 Climbing FlightAware
05:03AM -21.3000 -48.5960 140° Southeast 394 453 26,900 900 Climbing FlightAware
05:04AM -21.3460 -48.5540 140° Southeast 394 453 27,000 60 Climbing FlightAware
05:04AM -21.4000 -48.5070 141° Southeast 389 448 27,000  Level FlightAware
05:05AM -21.4440 -48.4670 140° Southeast 386 444 27,000  Level FlightAware
05:06AM -21.4930 -48.4240 141° Southeast 381 438 27,000  Level FlightAware
05:06AM -21.5430 -48.3800 141° Southeast 382 440 27,000  Level FlightAware
05:07AM -21.5920 -48.3370 141° Southeast 383 441 27,000  Level FlightAware
05:07AM -21.6360 -48.2970 140° Southeast 384 442 27,000  Level FlightAware
05:08AM -21.6830 -48.2550 140° Southeast 385 443 27,000  Level FlightAware
05:09AM -21.7370 -48.2070 140° Southeast 384 442 27,000  Level FlightAware
05:09AM -21.7810 -48.1680 141° Southeast 384 442 27,000  Level FlightAware
05:10AM -21.8200 -48.1360 143° Southeast 382 440 27,000  Level FlightAware
05:10AM -21.8750 -48.1070 154° Southeast 378 435 27,000  Level FlightAware
05:11AM -21.9330 -48.0760 154° Southeast 375 432 27,000  Level FlightAware
05:11AM -21.9960 -48.0420 153° Southeast 373 429 27,000  Level FlightAware
05:12AM -22.0540 -48.0110 154° Southeast 372 428 27,000  Level FlightAware
05:13AM -22.1040 -47.9850 154° Southeast 374 430 27,000  Level FlightAware
05:13AM -22.1600 -47.9550 154° Southeast 376 433 27,000  Level FlightAware
05:14AM -22.2150 -47.9260 154° Southeast 377 434 27,000  Level FlightAware
05:14AM -22.2650 -47.8990 153° Southeast 376 433 27,000  Level FlightAware
05:15AM -22.3230 -47.8680 154° Southeast 378 435 27,000  Level FlightAware
05:16AM -22.3770 -47.8400 154° Southeast 378 435 27,000  Level FlightAware
05:16AM -22.4370 -47.8070 153° Southeast 377 434 27,000  Level FlightAware
05:17AM -22.4930 -47.7780 154° Southeast 378 435 27,000 -1,200 Level FlightAware
05:17AM -22.5450 -47.7500 154° Southeast 395 455 25,700 -2,340 Descending FlightAware
05:18AM -22.6040 -47.7180 153° Southeast 396 456 24,400 -2,100 Descending FlightAware
05:18AM -22.6630 -47.6860 153° Southeast 392 451 23,200 -2,040 Descending FlightAware
05:19AM -22.7140 -47.6440 143° Southeast 387 445 22,000 -1,980 Descending FlightAware
05:20AM -22.7570 -47.6040 139° Southeast 382 440 21,000 -1,920 Descending FlightAware
05:20AM -22.8030 -47.5610 139° Southeast 375 432 19,900 -2,340 Descending FlightAware
05:21AM -22.8520 -47.5150 139° Southeast 385 443 18,200 -2,340 Descending FlightAware
05:21AM -22.8960 -47.4750 140° Southeast 373 429 17,200 -1,800 Descending FlightAware
05:22AM -22.9410 -47.4330 139° Southeast 362 417 16,200 -1,860 Descending FlightAware
05:22AM -22.9840 -47.3930 139° Southeast 348 400 15,100 -1,860 Descending FlightAware
05:23AM -23.0270 -47.3530 139° Southeast 345 397 14,100 -1,740 Descending FlightAware
05:24AM -23.0690 -47.3140 139° Southeast 336 387 13,100 -1,560 Descending FlightAware
05:24AM -23.1100 -47.2750 139° Southeast 323 372 12,300 -1,080 Descending FlightAware
05:25AM -23.1480 -47.2400 140° Southeast 299 344 11,900 -1,380 Descending FlightAware
05:25AM -23.1860 -47.2050 140° Southeast 301 346 10,700 -1,620 Descending FlightAware
05:26AM -23.2290 -47.1650 139° Southeast 286 329 9,900 -1,080 Descending FlightAware
05:26AM -23.2440 -47.1510 139° Southeast 277 319 9,700 -600 Descending FlightAware
05:27AM -23.2590 -47.1370 139° Southeast 274 315 9,600 -720 Descending FlightAware
05:27AM -23.2770 -47.1190 137° Southeast 259 298 9,300 -960 Descending FlightAware
05:27AM -23.3010 -47.0980 141° Southeast 255 293 8,900 -900 Descending FlightAware
05:28AM -23.3090 -47.0910 141° Southeast 251 289 8,800 -840 Descending FlightAware
05:28AM -23.3280 -47.0740 141° Southeast 238 274 8,500 -840 Descending FlightAware
05:28AM -23.3400 -47.0600 133° Southeast 243 280 8,300 -600 Descending FlightAware
05:28AM -23.3420 -47.0550 114° Southeast 240 276 8,300 -420 Level FlightAware
05:29AM -23.3540 -47.0280 116° Southeast 240 276 8,100 -720 Descending FlightAware
05:29AM -23.3640 -47.0060 116° Southeast 242 278 7,800 -1,080 Descending FlightAware
05:29AM -23.3740 -46.9840 116° Southeast 237 273 7,400 -1,200 Descending FlightAware
05:30AM -23.3820 -46.9670 117° Southeast 237 273 7,100 -1,260 Descending FlightAware
05:30AM -23.3920 -46.9460 117° Southeast 238 274 6,700 -960 Descending FlightAware
05:30AM -23.4010 -46.9250 115° Southeast 235 270 6,500 -840 Descending FlightAware
05:31AM -23.4140 -46.8970 117° Southeast 233 268 6,100 -840 Descending FlightAware
05:31AM -23.4230 -46.8770 116° Southeast 230 265 5,900 -660 Descending FlightAware
05:31AM -23.4330 -46.8560 117° Southeast 230 265 5,700 -600 Descending FlightAware
05:32AM -23.4430 -46.8350 117° Southeast 231 266 5,500 -540 Descending FlightAware
05:32AM -23.4540 -46.8120 118° Southeast 231 266 5,300 -420 Descending FlightAware
05:32AM -23.4640 -46.7880 114° Southeast 225 259 5,200 -180 Descending FlightAware
05:33AM -23.4740 -46.7670 117° Southeast 223 257 5,200  Level FlightAware
05:33AM -23.4770 -46.7630 129° Southeast 225 259 5,200  Level FlightAware
05:33AM -23.4810 -46.7590 137° Southeast 216 249 5,200  Level FlightAware
05:33AM -23.4880 -46.7520 137° Southeast 213 245 5,200 -840 Level FlightAware
05:33AM -23.5050 -46.7400 147° Southeast 197 227 4,800 -1,080 Descending FlightAware
05:34AM -23.5210 -46.7300 150° Southeast 189 217 4,500 -960 Descending FlightAware
05:34AM -23.5380 -46.7180 147° Southeast 155 178 4,100 -840 Descending FlightAware
05:35AM -23.5530 -46.7080 149° Southeast 142 163 3,800 -720 Descending FlightAware
05:35AM -23.5640 -46.7000 146° Southeast 138 159 3,600 -720 Descending FlightAware
05:35AM -23.5720 -46.6940 145° Southeast 136 157 3,400 -720 Descending FlightAware
05:35AM -23.5840 -46.6860 149° Southeast 135 155 3,200 -720 Descending FlightAware
05:36AM -23.5960 -46.6780 149° Southeast 134 154 2,900 -840 Descending FlightAware
05:36AM -23.6000 -46.6750 146° Southeast 139 160 2,800 -900 Descending FlightAware
05:36AM -23.6130 -46.6660 148° Southeast 138 159 2,500 -660 Descending FlightAware
05:37AM -23.6230 -46.6590 147° Southeast 138 159 2,300 -240 Descending FlightAware
05:37AM -23.6350 -46.6500 146° Southeast 138 159 2,300 120 Level FlightAware
05:38AM -23.6340 -46.6520 299° West 128 147 180 Descending FlightAware
05:38AM -23.6280 -46.6380 65° Northeast 128 147 2,340 Level FlightAware
05:39AM -23.6300 -46.6550 263° West 81 93 2,600 4,080 Climbing FlightAware